Schedule Details

Flight Number: CPX333
Departure: Valley International Airport (KHRL) at N/A
Arrival: Austin-Bergstrom International Airport (KAUS) at N/A
Route: CRP PCKIT


Current Weather Information
KHRL 192330Z 35008KT 3SM BR OVC006 13/12 A2975 RMK AO2 CIG 003V008 T01330122
KAUS 192253Z 02013KT 3SM -RA BR BKN007 OVC013 06/04 A2986 RMK AO2 SFC VIS 4 SLP115 P0003 T00610044